9-я Проточная

Карта отелей и гостиниц, располагающихся рядом с аэропортом 9-я Проточная :

9-я Проточная Томская область 60° 33' 29.88" N, 78° 4' 20.7012" E
9-я Проточная Томская область 60° 33' 29.88" N, 78° 4' 20.7012" E
Код аэродрома ИКАО
HB6T
Код аэродрома RU
ХБ6Т
Координаты
N60.55830° E078.07242°
Превышение над уровнем моря
52
Основная полоса
Курс магнитный
Длина основной ВПП
Ширина основной ВПП
Покрытие основной ВПП
Освещение ВПП
Тип: 
Вертодром
Класс аэродрома: 
Принадлежность: 
ГА
Статус: 
Недействующий
Сайт: 
E-mail аэродрома: 
Страна: 
Россия
Регион: 
Томская область
Город: 
Дополнительная информация: 

Найти трансфер

С помощью этой формы Вы можете найти трансфер из аэропорта 9-я Проточная в город, аэропорт или вокзал:

Карта места

Javascript is required to view this map.

Погода в аэропортах:

Авиационная погода в Храброво

Регион: 
Погода METAR: 
UMKK 171830Z 08006MPS 5000 -DZ BR OVC004 11/11 Q1011 R06/19//95 NOSIG RMK QBB120 OBST OBSC QFE757/1009
Время наблюдения
2021-09-17T18:30:00Z
Температура C
11.0
Точка росы
11.0
Направление ветра
80
Скорость ветра (узлы)
12
Метео видимость
3.11
Явления погоды
-DZ BR
Условия полета
LIFR
Аэропорт подробнее: 

Авиационная погода в Якутске

Регион: 
Погода METAR: 
UEEE 171830Z 30004MPS 9999 -SHRA SCT009 BKN018CB 07/07 Q0997 R23L/290155 NOSIG RMK QFE739
Время наблюдения
2021-09-17T18:30:00Z
Температура C
7.0
Точка росы
7.0
Направление ветра
300
Скорость ветра (узлы)
8
Метео видимость
6.21
Явления погоды
-SHRA
Условия полета
MVFR
Аэропорт подробнее: 

Авиационная погода в аэропорту Новый

Регион: 
Погода METAR: 
UHHH 171830Z 24004MPS 9999 -SHRA FEW034CB 15/12 Q1009 R23R/190050 TEMPO 3100 -TSRA RMK QFE750/1001
Время наблюдения
2021-09-17T18:30:00Z
Температура C
15.0
Точка росы
12.0
Направление ветра
240
Скорость ветра (узлы)
8
Метео видимость
6.21
Явления погоды
-SHRA
Условия полета
VFR
Аэропорт подробнее: 

Авиационная погода в Кневичи

Регион: 
Погода METAR: 
UHWW 171830Z 00000MPS 2100 0700E R25L/1600D PRFG OVC002 07/07 Q1014 R25L/0///70 NOSIG RMK QBB070 MT OBSC QFE759
Время наблюдения
2021-09-17T18:30:00Z
Температура C
7.0
Точка росы
7.0
Направление ветра
0
Скорость ветра (узлы)
0
Метео видимость
1.3
Явления погоды
PRFG
Условия полета
LIFR
Аэропорт подробнее: